createdAt,value
2019-04-29T00:00:51.931Z,90.26
2019-04-29T00:03:20.869Z,91.66
2019-04-29T00:05:50.020Z,92.40
2019-04-29T00:08:19.540Z,92.50
2019-04-29T00:10:48.203Z,93.05
2019-04-29T00:13:17.069Z,93.10
2019-04-29T00:15:49.982Z,92.61
2019-04-29T00:18:25.979Z,92.56
2019-04-29T00:20:54.430Z,92.10
2019-04-29T00:23:22.924Z,92.24
2019-04-29T00:25:51.501Z,90.70
2019-04-29T00:28:19.978Z,90.28
2019-04-29T00:30:48.415Z,89.91
2019-04-29T00:33:16.967Z,89.89
2019-04-29T00:35:45.407Z,90.30
2019-04-29T00:38:15.530Z,89.83
2019-04-29T00:41:03.366Z,90.04
2019-04-29T00:43:51.704Z,90.04
2019-04-29T00:46:20.299Z,90.35
2019-04-29T00:48:49.108Z,90.19
2019-04-29T00:51:17.667Z,90.01
2019-04-29T00:53:47.214Z,90.39
2019-04-29T00:56:15.682Z,90.88
2019-04-29T00:58:44.086Z,90.23
2019-04-29T01:01:14.347Z,90.79
2019-04-29T01:03:42.759Z,91.17
2019-04-29T01:06:11.274Z,91.28
2019-04-29T01:08:39.825Z,91.44
2019-04-29T01:11:08.376Z,91.06
2019-04-29T01:13:36.906Z,91.00
2019-04-29T01:16:05.401Z,90.65
2019-04-29T01:18:33.816Z,90.50
2019-04-29T01:21:02.278Z,90.04
2019-04-29T01:23:30.692Z,90.59
2019-04-29T01:26:00.751Z,91.33
2019-04-29T01:28:30.904Z,91.86
2019-04-29T01:31:02.994Z,91.86
2019-04-29T01:33:31.581Z,91.88
2019-04-29T01:36:17.526Z,92.24
2019-04-29T01:38:48.824Z,92.29
2019-04-29T01:41:19.287Z,92.44
2019-04-29T01:44:01.357Z,92.49
2019-04-29T01:46:30.427Z,92.85
2019-04-29T01:48:58.918Z,92.84
2019-04-29T01:51:27.471Z,92.49
2019-04-29T01:53:55.907Z,92.39
2019-04-29T01:56:24.464Z,92.95
2019-04-29T01:58:53.327Z,92.83
2019-04-29T02:01:21.932Z,93.08
2019-04-29T02:03:50.441Z,93.11
2019-04-29T02:06:18.953Z,93.06
2019-04-29T02:08:48.097Z,92.93
2019-04-29T02:11:16.516Z,93.36
2019-04-29T02:13:45.013Z,93.80
2019-04-29T02:16:13.434Z,94.06
2019-04-29T02:18:41.949Z,94.00
2019-04-29T02:21:10.435Z,94.04
2019-04-29T02:23:40.510Z,93.74
2019-04-29T02:26:08.946Z,94.29
2019-04-29T02:28:37.383Z,94.36
2019-04-29T02:31:23.636Z,94.45
2019-04-29T02:33:52.076Z,93.84
2019-04-29T02:36:20.504Z,94.38
2019-04-29T02:38:56.972Z,94.74
2019-04-29T02:41:36.337Z,95.21
2019-04-29T02:44:07.032Z,95.76
2019-04-29T02:46:35.494Z,96.02
2019-04-29T02:49:04.052Z,96.10
2019-04-29T02:51:46.442Z,95.88
2019-04-29T02:54:15.326Z,95.58
2019-04-29T02:56:48.139Z,95.70
2019-04-29T02:59:21.261Z,96.24
2019-04-29T03:02:07.493Z,96.24
2019-04-29T03:04:54.160Z,96.27
2019-04-29T03:07:22.927Z,96.65
2019-04-29T03:09:51.462Z,96.89
2019-04-29T03:12:20.123Z,97.17
2019-04-29T03:14:48.636Z,97.26
2019-04-29T03:17:18.877Z,96.77
2019-04-29T03:20:05.542Z,95.98
2019-04-29T03:22:34.397Z,95.25
2019-04-29T03:25:02.916Z,95.56
2019-04-29T03:27:31.332Z,95.74
2019-04-29T03:29:59.786Z,94.18
2019-04-29T03:32:28.209Z,94.10
2019-04-29T03:34:56.673Z,94.47
2019-04-29T03:37:25.099Z,94.13
2019-04-29T03:39:53.612Z,92.82
2019-04-29T03:42:22.166Z,92.67
2019-04-29T03:44:50.697Z,92.59
2019-04-29T03:47:19.362Z,92.79
2019-04-29T03:49:47.898Z,93.13
2019-04-29T03:52:16.360Z,92.93
2019-04-29T03:54:44.859Z,92.29
2019-04-29T03:57:14.875Z,91.92
2019-04-29T03:59:43.392Z,91.75
2019-04-29T04:02:13.462Z,92.36
2019-04-29T04:04:58.653Z,92.74
2019-04-29T04:07:28.885Z,92.80
2019-04-29T04:09:57.315Z,92.60
2019-04-29T04:12:25.773Z,92.46
2019-04-29T04:14:54.255Z,92.41
2019-04-29T04:17:32.943Z,92.03
2019-04-29T04:20:01.441Z,92.59
2019-04-29T04:22:31.524Z,92.18
2019-04-29T04:25:00.035Z,91.88
2019-04-29T04:27:28.513Z,92.39
2019-04-29T04:29:57.051Z,92.63
2019-04-29T04:32:25.579Z,92.51
2019-04-29T04:34:53.985Z,92.37
2019-04-29T04:37:22.438Z,92.46
2019-04-29T04:39:51.173Z,92.51
2019-04-29T04:42:19.688Z,92.01
2019-04-29T04:44:48.286Z,91.21
2019-04-29T04:47:18.732Z,91.56
2019-04-29T04:49:47.591Z,91.98
2019-04-29T04:52:16.066Z,91.45
2019-04-29T04:54:46.238Z,91.08
2019-04-29T04:57:14.817Z,90.87
2019-04-29T04:59:43.342Z,90.80
2019-04-29T05:02:11.919Z,91.33
2019-04-29T05:04:40.439Z,91.58
2019-04-29T05:07:08.919Z,91.63
2019-04-29T05:09:37.385Z,91.33
2019-04-29T05:12:05.857Z,91.38
2019-04-29T05:14:34.289Z,91.13
2019-04-29T05:17:02.818Z,90.99
2019-04-29T05:19:31.306Z,90.83
2019-04-29T05:21:59.926Z,90.37
2019-04-29T05:24:28.362Z,90.16
2019-04-29T05:26:56.818Z,89.88
2019-04-29T05:29:28.463Z,89.05
2019-04-29T05:31:55.481Z,89.39
2019-04-29T05:34:25.606Z,89.11
2019-04-29T05:36:55.680Z,88.75
2019-04-29T05:39:28.571Z,89.07
2019-04-29T05:41:57.056Z,89.30
2019-04-29T05:44:32.860Z,89.97
2019-04-29T05:47:08.744Z,90.29
2019-04-29T05:49:41.957Z,90.21
2019-04-29T05:52:34.823Z,90.70
2019-04-29T05:55:01.534Z,90.75
2019-04-29T05:57:30.108Z,90.79
2019-04-29T05:59:58.533Z,90.70
2019-04-29T06:02:34.481Z,90.40
2019-04-29T06:04:57.166Z,89.71
2019-04-29T06:07:26.914Z,89.14
2019-04-29T06:09:55.547Z,88.78
2019-04-29T06:12:23.972Z,87.82
2019-04-29T06:14:52.422Z,87.28
2019-04-29T06:17:20.914Z,87.04
2019-04-29T06:19:49.362Z,87.54
2019-04-29T06:22:17.847Z,86.93
2019-04-29T06:24:46.290Z,85.32
2019-04-29T06:27:14.810Z,84.82
2019-04-29T06:29:43.331Z,83.75
2019-04-29T06:32:11.822Z,84.24
2019-04-29T06:34:41.724Z,84.07
2019-04-29T06:37:10.349Z,83.50
2019-04-29T06:39:38.801Z,82.48
2019-04-29T06:42:07.308Z,82.36
2019-04-29T06:44:35.729Z,82.10
2019-04-29T06:47:04.250Z,81.71
2019-04-29T06:49:32.710Z,81.76
2019-04-29T06:52:01.231Z,81.91
2019-04-29T06:54:29.637Z,82.33
2019-04-29T06:56:58.155Z,81.16
2019-04-29T06:59:26.557Z,81.02
2019-04-29T07:01:55.019Z,78.60
2019-04-29T07:04:23.520Z,76.93
2019-04-29T07:06:57.564Z,77.58
2019-04-29T07:09:22.264Z,75.57
2019-04-29T07:11:50.810Z,75.31
2019-04-29T07:14:19.292Z,74.74
2019-04-29T07:16:47.778Z,75.22
2019-04-29T07:19:16.202Z,76.27
2019-04-29T07:21:47.061Z,78.10
2019-04-29T07:24:14.984Z,78.11
2019-04-29T07:26:43.426Z,77.84
2019-04-29T07:29:11.907Z,77.43
2019-04-29T07:31:40.334Z,77.76
2019-04-29T07:34:08.768Z,80.10
2019-04-29T07:36:37.504Z,77.15
2019-04-29T07:39:07.256Z,76.25
2019-04-29T07:41:35.767Z,74.95
2019-04-29T07:44:04.373Z,77.03
2019-04-29T07:46:48.994Z,74.35
2019-04-29T07:49:05.802Z,73.89
2019-04-29T07:51:34.711Z,73.40
2019-04-29T07:54:04.660Z,73.07
2019-04-29T07:56:33.193Z,75.12
2019-04-29T07:59:02.971Z,72.51
2019-04-29T08:01:31.850Z,72.15
2019-04-29T08:04:00.371Z,73.16
2019-04-29T08:06:29.543Z,71.60
2019-04-29T08:09:07.429Z,70.32
2019-04-29T08:11:30.532Z,67.07
2019-04-29T08:14:01.275Z,67.21
2019-04-29T08:16:29.720Z,68.62
2019-04-29T08:18:58.169Z,65.09
2019-04-29T08:21:26.849Z,63.60
2019-04-29T08:23:55.389Z,60.88
2019-04-29T08:26:23.850Z,57.83
2019-04-29T08:28:59.942Z,58.25
2019-04-29T08:31:22.717Z,57.39
2019-04-29T08:33:51.241Z,60.08
2019-04-29T08:36:19.748Z,61.91
2019-04-29T08:38:48.243Z,62.87
2019-04-29T08:41:21.545Z,61.60
2019-04-29T08:43:52.217Z,57.69
2019-04-29T08:46:29.028Z,58.57
2019-04-29T08:49:01.149Z,56.48
2019-04-29T08:51:27.747Z,57.50
2019-04-29T08:53:56.165Z,58.78
2019-04-29T08:56:24.684Z,54.73
2019-04-29T08:58:53.174Z,57.20
2019-04-29T09:01:24.518Z,56.46
2019-04-29T09:03:53.770Z,54.25
2019-04-29T09:06:21.925Z,51.39
2019-04-29T09:08:55.310Z,50.47
2019-04-29T09:11:20.532Z,52.53
2019-04-29T09:13:48.958Z,53.71
2019-04-29T09:16:17.503Z,54.61
2019-04-29T09:18:45.954Z,54.45
2019-04-29T09:21:14.384Z,54.73
2019-04-29T09:23:42.869Z,55.24
2019-04-29T09:26:31.016Z,55.75
2019-04-29T09:29:03.948Z,55.51
2019-04-29T09:31:31.277Z,55.37
2019-04-29T09:34:06.856Z,57.12
2019-04-29T09:36:29.964Z,55.96
2019-04-29T09:38:58.393Z,54.41
2019-04-29T09:41:40.772Z,53.16
2019-04-29T09:44:27.132Z,53.55
2019-04-29T09:46:55.658Z,52.55
2019-04-29T09:49:24.225Z,48.79
2019-04-29T09:51:52.698Z,49.13
2019-04-29T09:54:21.144Z,51.03
2019-04-29T09:56:49.605Z,54.42
2019-04-29T09:59:31.814Z,51.48
2019-04-29T10:02:10.822Z,49.59
2019-04-29T10:04:59.385Z,49.97
2019-04-29T10:07:28.292Z,49.59
2019-04-29T10:09:57.732Z,51.05
2019-04-29T10:12:26.850Z,48.83
2019-04-29T10:14:55.300Z,49.99
2019-04-29T10:17:45.819Z,47.14
2019-04-29T10:20:14.240Z,45.87
2019-04-29T10:22:42.725Z,47.50
2019-04-29T10:25:11.487Z,44.63
2019-04-29T10:27:39.975Z,45.08
2019-04-29T10:30:09.737Z,45.79
2019-04-29T10:32:42.344Z,45.45
2019-04-29T10:35:10.548Z,43.51
2019-04-29T10:37:38.828Z,41.73
2019-04-29T10:40:16.054Z,41.40
2019-04-29T10:42:48.823Z,45.84
2019-04-29T10:45:21.940Z,51.78
2019-04-29T10:47:54.796Z,47.91
2019-04-29T10:50:30.382Z,46.68
2019-04-29T10:52:59.057Z,42.58
2019-04-29T10:55:30.101Z,45.23
2019-04-29T10:57:58.175Z,43.67
2019-04-29T11:00:58.463Z,41.63
2019-04-29T11:03:27.205Z,40.86
2019-04-29T11:06:00.614Z,39.95
2019-04-29T11:08:27.677Z,41.35
2019-04-29T11:11:02.398Z,39.98
2019-04-29T11:13:27.384Z,40.66
2019-04-29T11:15:55.923Z,43.74
2019-04-29T11:18:25.135Z,43.63
2019-04-29T11:20:55.470Z,44.25
2019-04-29T11:23:25.600Z,44.95
2019-04-29T11:25:58.659Z,47.47
2019-04-29T11:28:28.125Z,48.45
2019-04-29T11:30:56.643Z,50.67
2019-04-29T11:33:39.990Z,50.28
2019-04-29T11:36:10.977Z,51.39
2019-04-29T11:38:41.005Z,52.33
2019-04-29T11:41:12.199Z,51.57
2019-04-29T11:43:40.143Z,52.72
2019-04-29T11:46:09.968Z,48.71
2019-04-29T11:48:38.999Z,49.19
2019-04-29T11:51:21.529Z,48.69
2019-04-29T11:53:50.384Z,49.59
2019-04-29T11:56:18.885Z,50.89
2019-04-29T11:58:58.151Z,51.95
2019-04-29T12:01:38.730Z,51.89
2019-04-29T12:04:15.398Z,51.98
2019-04-29T12:06:43.996Z,51.37
2019-04-29T12:09:12.804Z,52.99
2019-04-29T12:11:41.574Z,51.45
2019-04-29T12:14:11.739Z,52.74
2019-04-29T12:16:54.535Z,52.52
2019-04-29T12:19:34.978Z,50.32
2019-04-29T12:22:04.899Z,50.91
2019-04-29T12:24:34.547Z,49.83
2019-04-29T12:27:04.147Z,48.64
2019-04-29T12:29:32.740Z,49.65
2019-04-29T12:32:02.805Z,48.92
2019-04-29T12:34:32.939Z,47.37
2019-04-29T12:37:01.641Z,48.09
2019-04-29T12:39:43.385Z,46.67
2019-04-29T12:42:26.073Z,46.74
2019-04-29T12:44:56.212Z,47.31
2019-04-29T12:47:32.768Z,49.01
2019-04-29T12:50:01.701Z,50.23
2019-04-29T12:52:30.237Z,48.69
2019-04-29T12:55:03.139Z,47.82
2019-04-29T12:57:28.908Z,47.78
2019-04-29T12:59:57.505Z,48.68
2019-04-29T13:02:36.620Z,48.81
2019-04-29T13:05:09.588Z,48.66
2019-04-29T13:07:43.220Z,50.87
2019-04-29T13:10:16.596Z,48.36
2019-04-29T13:12:46.210Z,48.79
2019-04-29T13:15:25.573Z,46.45
2019-04-29T13:18:03.115Z,48.02
2019-04-29T13:20:25.886Z,50.34
2019-04-29T13:22:54.349Z,49.55
2019-04-29T13:25:22.883Z,48.01
2019-04-29T13:27:51.552Z,47.78
2019-04-29T13:30:20.046Z,46.77
2019-04-29T13:32:48.605Z,46.77
2019-04-29T13:35:17.599Z,46.73
2019-04-29T13:37:46.204Z,47.35
2019-04-29T13:40:15.662Z,46.88
2019-04-29T13:42:48.516Z,45.59
2019-04-29T13:45:20.134Z,46.53
2019-04-29T13:48:01.768Z,47.65
2019-04-29T13:50:39.351Z,47.68
2019-04-29T13:53:02.175Z,46.47
2019-04-29T13:55:48.301Z,46.29
2019-04-29T13:58:00.832Z,45.43
2019-04-29T14:00:47.558Z,45.46
2019-04-29T14:03:18.017Z,43.71
2019-04-29T14:05:46.431Z,43.72
2019-04-29T14:08:14.936Z,45.32
2019-04-29T14:10:46.783Z,49.94
2019-04-29T14:13:18.766Z,50.88
2019-04-29T14:15:44.037Z,50.65
2019-04-29T14:18:13.754Z,50.79
2019-04-29T14:20:42.239Z,53.01
2019-04-29T14:23:10.790Z,52.74
2019-04-29T14:25:39.325Z,52.99
2019-04-29T14:28:07.775Z,53.35
2019-04-29T14:30:39.011Z,53.35
2019-04-29T14:33:06.572Z,51.18
2019-04-29T14:35:43.894Z,52.77
2019-04-29T14:38:13.581Z,53.42
2019-04-29T14:40:42.769Z,54.62
2019-04-29T14:43:32.038Z,56.37
2019-04-29T14:46:02.184Z,56.94
2019-04-29T14:48:42.089Z,56.67
2019-04-29T14:51:02.576Z,56.93
2019-04-29T14:53:31.013Z,56.29
2019-04-29T14:55:59.549Z,55.27
2019-04-29T14:58:27.983Z,55.54
2019-04-29T15:00:58.607Z,56.34
2019-04-29T15:03:46.688Z,55.59
2019-04-29T15:06:15.430Z,56.28
2019-04-29T15:08:43.932Z,56.82
2019-04-29T15:11:12.401Z,60.60
2019-04-29T15:13:43.143Z,63.52
2019-04-29T15:16:14.050Z,63.18
2019-04-29T15:18:51.212Z,64.08
2019-04-29T15:21:32.762Z,62.75
2019-04-29T15:23:57.598Z,64.29
2019-04-29T15:26:26.035Z,62.46
2019-04-29T15:28:54.508Z,63.54
2019-04-29T15:31:24.052Z,62.05
2019-04-29T15:33:52.601Z,60.98
2019-04-29T15:36:21.120Z,58.97
2019-04-29T15:39:08.219Z,58.93
2019-04-29T15:41:20.103Z,57.74
2019-04-29T15:43:48.795Z,58.14
2019-04-29T15:46:17.395Z,59.28
2019-04-29T15:48:46.001Z,58.70
2019-04-29T15:51:14.873Z,59.85
2019-04-29T15:53:43.350Z,59.98
2019-04-29T15:56:27.577Z,60.50
2019-04-29T15:58:42.535Z,60.80
2019-04-29T16:01:17.221Z,59.47
2019-04-29T16:03:41.452Z,58.04
2019-04-29T16:06:21.152Z,57.91
2019-04-29T16:08:59.100Z,58.16
2019-04-29T16:11:47.761Z,57.34
2019-04-29T16:14:17.964Z,57.99
2019-04-29T16:16:46.414Z,58.53
2019-04-29T16:19:14.918Z,57.55
2019-04-29T16:21:43.331Z,58.93
2019-04-29T16:24:25.675Z,58.38
2019-04-29T16:26:41.960Z,58.87
2019-04-29T16:29:13.340Z,60.85
2019-04-29T16:31:40.960Z,59.93
2019-04-29T16:34:09.879Z,60.38
2019-04-29T16:36:43.638Z,59.43
2019-04-29T16:39:08.959Z,61.10
2019-04-29T16:41:39.071Z,60.48
2019-04-29T16:44:33.499Z,61.05
2019-04-29T16:46:39.459Z,60.54
2019-04-29T16:49:07.904Z,61.52
2019-04-29T16:51:36.394Z,60.10
2019-04-29T16:54:04.979Z,60.08
2019-04-29T16:56:33.501Z,59.80
2019-04-29T16:59:09.170Z,61.02
2019-04-29T17:01:32.615Z,60.99
2019-04-29T17:04:05.282Z,60.53
2019-04-29T17:06:35.893Z,56.44
2019-04-29T17:09:05.426Z,52.55
2019-04-29T17:11:38.134Z,50.96
2019-04-29T17:14:10.193Z,50.44
2019-04-29T17:16:37.213Z,49.29
2019-04-29T17:19:05.724Z,50.20
2019-04-29T17:21:34.325Z,51.38
2019-04-29T17:24:02.845Z,50.55
2019-04-29T17:26:48.286Z,50.97
2019-04-29T17:29:38.646Z,51.43
2019-04-29T17:31:57.969Z,51.19
2019-04-29T17:34:58.428Z,51.59
2019-04-29T17:37:07.570Z,53.45
2019-04-29T17:39:36.107Z,54.92
2019-04-29T17:42:04.656Z,59.23
2019-04-29T17:44:40.921Z,59.76
2019-04-29T17:47:13.751Z,60.92
2019-04-29T17:49:52.624Z,62.80
2019-04-29T17:52:22.849Z,65.59
2019-04-29T17:54:54.961Z,66.03
2019-04-29T17:57:31.245Z,66.76
2019-04-29T18:00:15.925Z,67.62
2019-04-29T18:02:52.530Z,69.22
2019-04-29T18:05:32.977Z,70.37
2019-04-29T18:07:59.197Z,71.01
2019-04-29T18:10:29.744Z,72.32
2019-04-29T18:12:58.241Z,71.97
2019-04-29T18:15:40.411Z,70.41
2019-04-29T18:18:00.350Z,72.02
2019-04-29T18:20:42.786Z,72.25
2019-04-29T18:23:24.876Z,72.48
2019-04-29T18:26:00.901Z,72.15
2019-04-29T18:28:29.430Z,72.52
2019-04-29T18:30:58.063Z,70.93
2019-04-29T18:33:30.211Z,71.51
2019-04-29T18:36:04.122Z,71.93
2019-04-29T18:38:26.860Z,73.33
2019-04-29T18:40:55.855Z,72.26
2019-04-29T18:43:26.507Z,71.39
2019-04-29T18:45:58.346Z,69.81
2019-04-29T18:48:26.893Z,70.16
2019-04-29T18:50:56.920Z,71.88
2019-04-29T18:53:25.629Z,68.86
2019-04-29T18:55:55.071Z,67.18
2019-04-29T18:58:24.916Z,66.45
2019-04-29T19:00:56.234Z,66.05
2019-04-29T19:03:29.679Z,66.94
2019-04-29T19:05:57.456Z,66.33
2019-04-29T19:08:28.579Z,67.85
2019-04-29T19:10:56.352Z,68.00
2019-04-29T19:13:26.057Z,68.34
2019-04-29T19:16:08.381Z,68.53
2019-04-29T19:18:25.493Z,68.38
2019-04-29T19:20:56.498Z,68.80
2019-04-29T19:23:27.933Z,69.42
2019-04-29T19:25:54.541Z,69.84
2019-04-29T19:28:30.713Z,71.23
2019-04-29T19:30:56.074Z,71.91
2019-04-29T19:33:25.248Z,73.25
2019-04-29T19:35:55.379Z,73.08
2019-04-29T19:38:25.313Z,73.54
2019-04-29T19:40:54.029Z,72.87
2019-04-29T19:43:22.685Z,74.26
2019-04-29T19:45:51.165Z,75.20
2019-04-29T19:48:22.604Z,76.47
2019-04-29T19:51:12.918Z,77.95
2019-04-29T19:53:20.048Z,78.41
2019-04-29T19:55:48.583Z,78.98
2019-04-29T19:58:17.861Z,79.46
2019-04-29T20:00:48.350Z,78.80
2019-04-29T20:03:23.472Z,79.35
2019-04-29T20:05:49.966Z,80.22
2019-04-29T20:08:37.599Z,80.59
2019-04-29T20:10:51.572Z,80.53
2019-04-29T20:13:19.584Z,80.50
2019-04-29T20:15:50.565Z,81.52
2019-04-29T20:18:40.264Z,81.44
2019-04-29T20:21:09.731Z,81.23
2019-04-29T20:23:39.683Z,81.79
2019-04-29T20:26:15.592Z,82.62
2019-04-29T20:28:38.559Z,82.16
2019-04-29T20:31:16.344Z,82.56
2019-04-29T20:33:37.734Z,83.09
2019-04-29T20:36:06.659Z,83.24
2019-04-29T20:38:38.911Z,83.07
2019-04-29T20:41:08.020Z,83.56
2019-04-29T20:43:36.181Z,83.43
2019-04-29T20:46:05.055Z,84.41
2019-04-29T20:48:36.765Z,83.23
2019-04-29T20:51:11.576Z,83.80
2019-04-29T20:53:46.082Z,84.08
2019-04-29T20:56:24.155Z,85.07
2019-04-29T20:58:46.823Z,85.98
2019-04-29T21:01:16.976Z,85.86
2019-04-29T21:03:51.099Z,85.63
2019-04-29T21:06:15.665Z,86.98
2019-04-29T21:08:45.001Z,86.75
2019-04-29T21:11:21.103Z,86.44
2019-04-29T21:13:55.976Z,86.71
2019-04-29T21:16:29.084Z,86.85
2019-04-29T21:18:57.143Z,88.54
2019-04-29T21:21:25.678Z,87.59
2019-04-29T21:23:55.303Z,87.57
2019-04-29T21:26:26.073Z,88.03
2019-04-29T21:28:55.548Z,87.91
2019-04-29T21:31:25.514Z,87.67
2019-04-29T21:33:57.146Z,86.92
2019-04-29T21:36:26.623Z,86.70
2019-04-29T21:39:01.963Z,87.95
2019-04-29T21:41:35.946Z,88.26
2019-04-29T21:44:05.954Z,88.17
2019-04-29T21:46:35.099Z,88.66
2019-04-29T21:49:11.401Z,88.68
2019-04-29T21:51:35.515Z,89.08
2019-04-29T21:54:04.070Z,89.08
2019-04-29T21:56:32.506Z,89.26
2019-04-29T21:59:02.610Z,89.02
2019-04-29T22:01:34.282Z,89.47
2019-04-29T22:04:02.089Z,89.12
2019-04-29T22:06:31.746Z,89.74
2019-04-29T22:09:01.210Z,90.51
2019-04-29T22:11:30.405Z,90.77
2019-04-29T22:13:58.827Z,91.05
2019-04-29T22:16:27.716Z,91.09
2019-04-29T22:18:56.319Z,91.05
2019-04-29T22:21:26.022Z,90.84
2019-04-29T22:23:55.283Z,90.75
2019-04-29T22:26:26.890Z,90.91
2019-04-29T22:29:01.593Z,90.65
2019-04-29T22:31:28.384Z,91.10
2019-04-29T22:33:55.329Z,91.49
2019-04-29T22:36:25.035Z,91.42
2019-04-29T22:38:53.644Z,90.97
2019-04-29T22:41:26.712Z,90.67
2019-04-29T22:43:56.990Z,90.54
2019-04-29T22:46:25.609Z,90.84
2019-04-29T22:48:55.760Z,91.00
2019-04-29T22:51:25.472Z,90.91
2019-04-29T22:53:55.691Z,91.19
2019-04-29T22:56:27.625Z,91.82
2019-04-29T22:58:55.957Z,91.73
2019-04-29T23:01:25.964Z,92.00
2019-04-29T23:03:55.368Z,91.74
2019-04-29T23:06:25.827Z,91.34
2019-04-29T23:08:56.115Z,91.84
2019-04-29T23:11:24.736Z,92.04
2019-04-29T23:13:53.206Z,92.06
2019-04-29T23:16:21.618Z,92.19
2019-04-29T23:18:50.026Z,92.33
2019-04-29T23:21:37.477Z,92.25
2019-04-29T23:24:13.289Z,92.43
2019-04-29T23:26:42.258Z,92.45
2019-04-29T23:29:10.395Z,92.58
2019-04-29T23:31:38.827Z,92.49
2019-04-29T23:34:07.284Z,92.58
2019-04-29T23:36:35.695Z,92.15
2019-04-29T23:39:05.423Z,92.25
2019-04-29T23:41:36.536Z,91.91
2019-04-29T23:44:08.632Z,92.07
2019-04-29T23:46:34.480Z,92.39
2019-04-29T23:49:06.501Z,92.37
2019-04-29T23:51:37.626Z,92.48
2019-04-29T23:54:07.848Z,92.50
2019-04-29T23:56:38.517Z,92.54
2019-04-29T23:59:14.789Z,92.45
